createdAt,value
2023-05-01T00:00:29.863Z,99.90
2023-05-01T00:02:56.946Z,99.90
2023-05-01T00:05:24.623Z,99.90
2023-05-01T00:07:51.959Z,99.90
2023-05-01T00:10:20.194Z,99.90
2023-05-01T00:12:46.931Z,99.90
2023-05-01T00:15:15.003Z,99.90
2023-05-01T00:17:42.092Z,99.90
2023-05-01T00:20:10.923Z,99.90
2023-05-01T00:22:37.991Z,99.90
2023-05-01T00:25:06.160Z,99.90
2023-05-01T00:27:33.232Z,99.90
2023-05-01T00:30:00.654Z,99.90
2023-05-01T00:32:27.407Z,99.90
2023-05-01T00:34:56.781Z,99.90
2023-05-01T00:37:24.548Z,99.90
2023-05-01T00:39:51.717Z,99.90
2023-05-01T00:42:19.279Z,99.90
2023-05-01T00:44:46.608Z,99.90
2023-05-01T00:47:14.889Z,99.90
2023-05-01T00:49:42.831Z,99.90
2023-05-01T00:52:11.130Z,99.90
2023-05-01T00:54:38.086Z,99.90
2023-05-01T00:57:06.812Z,99.90
2023-05-01T00:59:34.411Z,99.90
2023-05-01T01:02:01.745Z,99.90
2023-05-01T01:04:31.496Z,99.90
2023-05-01T01:07:01.289Z,99.90
2023-05-01T01:09:37.729Z,99.90
2023-05-01T01:12:17.170Z,99.90
2023-05-01T01:15:05.440Z,99.90
2023-05-01T01:17:51.984Z,99.90
2023-05-01T01:20:27.480Z,99.90
2023-05-01T01:23:15.271Z,99.90
2023-05-01T01:26:22.962Z,99.90
2023-05-01T01:29:12.427Z,99.90
2023-05-01T01:31:58.299Z,99.90
2023-05-01T01:34:40.291Z,99.90
2023-05-01T01:37:30.473Z,99.90
2023-05-01T01:40:08.894Z,99.90
2023-05-01T01:42:45.280Z,99.90
2023-05-01T01:45:23.145Z,99.90
2023-05-01T01:47:50.042Z,99.90
2023-05-01T01:50:16.786Z,99.90
2023-05-01T01:52:45.028Z,99.90
2023-05-01T01:55:13.422Z,99.90
2023-05-01T01:57:43.026Z,99.90
2023-05-01T02:00:13.197Z,99.90
2023-05-01T02:02:40.968Z,99.90
2023-05-01T02:05:08.887Z,99.90
2023-05-01T02:07:38.094Z,99.90
2023-05-01T02:10:06.172Z,99.90
2023-05-01T02:12:33.147Z,99.90
2023-05-01T02:15:00.606Z,99.90
2023-05-01T02:17:28.157Z,99.90
2023-05-01T02:19:57.511Z,99.90
2023-05-01T02:22:25.798Z,99.90
2023-05-01T02:24:54.146Z,99.90
2023-05-01T02:27:25.785Z,99.90
2023-05-01T02:29:54.033Z,99.90
2023-05-01T02:32:21.730Z,99.90
2023-05-01T02:34:49.808Z,99.90
2023-05-01T02:37:17.603Z,99.90
2023-05-01T02:39:47.536Z,99.90
2023-05-01T02:42:16.048Z,99.90
2023-05-01T02:44:48.148Z,99.90
2023-05-01T02:47:18.326Z,99.90
2023-05-01T02:49:48.069Z,99.90
2023-05-01T02:52:18.792Z,99.90
2023-05-01T02:54:49.295Z,99.90
2023-05-01T02:57:18.114Z,99.90
2023-05-01T02:59:45.880Z,99.90
2023-05-01T03:02:13.481Z,99.90
2023-05-01T03:04:42.171Z,99.90
2023-05-01T03:07:09.380Z,99.90
2023-05-01T03:09:36.728Z,99.90
2023-05-01T03:12:04.009Z,99.90
2023-05-01T03:14:31.024Z,99.90
2023-05-01T03:16:58.322Z,99.90
2023-05-01T03:19:25.975Z,99.90
2023-05-01T03:21:53.031Z,99.90
2023-05-01T03:24:20.963Z,99.90
2023-05-01T03:26:48.743Z,99.90
2023-05-01T03:29:16.039Z,99.90
2023-05-01T03:31:44.500Z,99.90
2023-05-01T03:34:12.034Z,99.90
2023-05-01T03:36:39.750Z,99.90
2023-05-01T03:39:08.571Z,99.90
2023-05-01T03:41:54.320Z,99.90
2023-05-01T03:44:24.947Z,99.90
2023-05-01T03:46:51.879Z,99.90
2023-05-01T03:49:24.685Z,99.90
2023-05-01T03:51:52.380Z,99.90
2023-05-01T03:54:20.033Z,99.90
2023-05-01T03:57:04.269Z,99.90
2023-05-01T03:59:31.427Z,99.90
2023-05-01T04:01:58.826Z,99.90
2023-05-01T04:04:30.091Z,99.90
2023-05-01T04:06:58.489Z,99.90
2023-05-01T04:09:25.878Z,99.90
2023-05-01T04:11:52.921Z,99.90
2023-05-01T04:14:20.219Z,99.90
2023-05-01T04:16:47.822Z,99.90
2023-05-01T04:19:15.205Z,99.90
2023-05-01T04:21:46.077Z,99.90
2023-05-01T04:24:13.603Z,99.90
2023-05-01T04:26:42.611Z,99.90
2023-05-01T04:29:10.054Z,99.90
2023-05-01T04:31:37.632Z,99.90
2023-05-01T04:34:06.758Z,99.90
2023-05-01T04:36:36.584Z,99.90
2023-05-01T04:39:04.156Z,99.90
2023-05-01T04:41:31.350Z,99.90
2023-05-01T04:43:58.836Z,99.90
2023-05-01T04:46:26.616Z,99.90
2023-05-01T04:48:54.135Z,99.90
2023-05-01T04:51:22.662Z,99.90
2023-05-01T04:53:51.168Z,99.90
2023-05-01T04:56:24.883Z,99.90
2023-05-01T04:58:56.180Z,99.90
2023-05-01T05:01:26.384Z,99.90
2023-05-01T05:03:53.296Z,99.90
2023-05-01T05:06:21.751Z,99.90
2023-05-01T05:08:52.286Z,99.90
2023-05-01T05:11:19.575Z,99.90
2023-05-01T05:13:57.926Z,99.90
2023-05-01T05:16:25.385Z,99.90
2023-05-01T05:18:55.382Z,99.90
2023-05-01T05:21:23.068Z,99.90
2023-05-01T05:23:56.098Z,99.90
2023-05-01T05:26:24.858Z,99.90
2023-05-01T05:28:52.403Z,99.90
2023-05-01T05:31:19.996Z,99.90
2023-05-01T05:33:47.377Z,99.90
2023-05-01T05:36:16.199Z,99.90
2023-05-01T05:38:44.178Z,99.90
2023-05-01T05:41:15.362Z,99.90
2023-05-01T05:43:42.486Z,99.90
2023-05-01T05:46:09.980Z,99.90
2023-05-01T05:48:38.780Z,99.90
2023-05-01T05:51:06.018Z,99.90
2023-05-01T05:53:34.715Z,99.90
2023-05-01T05:56:02.306Z,99.90
2023-05-01T05:58:30.494Z,99.90
2023-05-01T06:00:57.907Z,99.90
2023-05-01T06:03:25.259Z,99.90
2023-05-01T06:05:55.304Z,99.90
2023-05-01T06:08:22.591Z,99.90
2023-05-01T06:10:50.094Z,99.90
2023-05-01T06:13:17.556Z,99.90
2023-05-01T06:15:47.773Z,99.90
2023-05-01T06:18:15.087Z,99.90
2023-05-01T06:20:42.724Z,99.90
2023-05-01T06:23:10.325Z,99.90
2023-05-01T06:26:00.917Z,99.90
2023-05-01T06:28:27.990Z,99.90
2023-05-01T06:30:55.875Z,99.90
2023-05-01T06:33:25.011Z,99.90
2023-05-01T06:36:08.201Z,99.90
2023-05-01T06:38:36.129Z,99.90
2023-05-01T06:41:05.960Z,99.90
2023-05-01T06:43:33.637Z,99.90
2023-05-01T06:46:01.569Z,99.90
2023-05-01T06:48:28.894Z,99.90
2023-05-01T06:50:56.574Z,99.90
2023-05-01T06:53:23.666Z,99.90
2023-05-01T06:55:51.089Z,99.90
2023-05-01T06:58:23.844Z,99.90
2023-05-01T07:00:51.403Z,99.90
2023-05-01T07:03:18.930Z,99.90
2023-05-01T07:05:46.659Z,99.90
2023-05-01T07:08:14.204Z,99.90
2023-05-01T07:10:42.238Z,99.90
2023-05-01T07:13:09.536Z,99.90
2023-05-01T07:15:37.094Z,99.90
2023-05-01T07:18:06.384Z,99.90
2023-05-01T07:20:34.865Z,99.90
2023-05-01T07:23:03.145Z,99.90
2023-05-01T07:25:31.288Z,99.90
2023-05-01T07:28:00.724Z,99.90
2023-05-01T07:30:30.782Z,99.90
2023-05-01T07:32:59.164Z,99.90
2023-05-01T07:35:32.293Z,99.90
2023-05-01T07:37:59.559Z,99.90
2023-05-01T07:40:27.285Z,99.90
2023-05-01T07:42:54.863Z,99.90
2023-05-01T07:45:22.263Z,99.90
2023-05-01T07:47:52.250Z,99.90
2023-05-01T07:50:19.734Z,99.90
2023-05-01T07:52:47.314Z,99.90
2023-05-01T07:55:19.153Z,99.90
2023-05-01T07:57:46.366Z,99.90
2023-05-01T08:00:16.389Z,99.90
2023-05-01T08:02:43.398Z,99.90
2023-05-01T08:05:10.696Z,99.90
2023-05-01T08:07:38.075Z,99.90
2023-05-01T08:10:06.546Z,99.90
2023-05-01T08:12:33.273Z,99.90
2023-05-01T08:15:00.905Z,99.90
2023-05-01T08:17:27.878Z,99.90
2023-05-01T08:19:57.102Z,99.90
2023-05-01T08:22:24.509Z,99.90
2023-05-01T08:24:51.559Z,99.90
2023-05-01T08:27:19.304Z,99.90
2023-05-01T08:29:46.536Z,99.90
2023-05-01T08:32:15.028Z,99.90
2023-05-01T08:34:42.499Z,99.90
2023-05-01T08:37:09.904Z,99.90
2023-05-01T08:39:37.017Z,99.90
2023-05-01T08:42:05.611Z,99.90
2023-05-01T08:44:32.796Z,99.90
2023-05-01T08:47:12.681Z,99.90
2023-05-01T08:49:39.710Z,99.90
2023-05-01T08:52:06.885Z,99.90
2023-05-01T08:54:34.139Z,99.90
2023-05-01T08:57:03.561Z,99.90
2023-05-01T08:59:34.707Z,99.90
2023-05-01T09:02:02.740Z,99.90
2023-05-01T09:04:32.366Z,99.90
2023-05-01T09:07:00.846Z,99.90
2023-05-01T09:09:29.355Z,99.90
2023-05-01T09:12:24.949Z,99.90
2023-05-01T09:14:52.545Z,99.90
2023-05-01T09:17:19.997Z,99.90
2023-05-01T09:19:47.316Z,99.90
2023-05-01T09:22:14.674Z,99.90
2023-05-01T09:24:41.473Z,99.90
2023-05-01T09:27:09.444Z,99.90
2023-05-01T09:29:43.209Z,99.90
2023-05-01T09:32:13.824Z,99.90
2023-05-01T09:34:41.286Z,99.90
2023-05-01T09:37:08.547Z,99.90
2023-05-01T09:39:36.144Z,99.90
2023-05-01T09:42:03.360Z,99.90
2023-05-01T09:44:31.943Z,99.90
2023-05-01T09:46:58.964Z,99.90
2023-05-01T09:49:46.308Z,99.90
2023-05-01T09:52:14.710Z,99.90
2023-05-01T09:54:42.975Z,99.90
2023-05-01T09:57:09.963Z,99.90
2023-05-01T09:59:37.672Z,99.90
2023-05-01T10:02:04.670Z,99.90
2023-05-01T10:04:38.706Z,99.90
2023-05-01T10:07:14.600Z,99.90
2023-05-01T10:09:42.240Z,99.90
2023-05-01T10:12:09.474Z,99.90
2023-05-01T10:14:51.443Z,99.90
2023-05-01T10:17:19.919Z,99.90
2023-05-01T10:19:47.585Z,99.90
2023-05-01T10:22:14.339Z,99.90
2023-05-01T10:24:43.728Z,99.90
2023-05-01T10:27:11.937Z,99.90
2023-05-01T10:29:40.686Z,99.90
2023-05-01T10:32:08.407Z,99.90
2023-05-01T10:34:40.305Z,99.90
2023-05-01T10:37:13.330Z,99.90
2023-05-01T10:39:43.401Z,99.70
2023-05-01T10:42:14.245Z,99.90
2023-05-01T10:44:44.692Z,98.70
2023-05-01T10:47:28.214Z,97.80
2023-05-01T10:50:12.361Z,98.60
2023-05-01T10:53:14.424Z,99.40
2023-05-01T10:55:49.411Z,99.90
2023-05-01T10:58:54.769Z,99.70
2023-05-01T11:01:38.099Z,97.90
2023-05-01T11:04:08.534Z,99.90
2023-05-01T11:06:36.994Z,99.90
2023-05-01T11:09:38.180Z,99.90
2023-05-01T11:12:06.648Z,99.90
2023-05-01T11:15:05.698Z,99.90
2023-05-01T11:17:42.207Z,99.90
2023-05-01T11:20:38.485Z,99.90
2023-05-01T11:23:05.907Z,99.90
2023-05-01T11:25:33.756Z,99.90
2023-05-01T11:28:01.977Z,99.90
2023-05-01T11:30:38.944Z,99.90
2023-05-01T11:33:07.060Z,99.90
2023-05-01T11:35:36.275Z,99.90
2023-05-01T11:38:03.815Z,99.90
2023-05-01T11:40:34.837Z,99.90
2023-05-01T11:43:02.558Z,99.90
2023-05-01T11:45:29.950Z,99.90
2023-05-01T11:47:57.801Z,99.90
2023-05-01T11:50:40.999Z,99.30
2023-05-01T11:53:17.535Z,97.90
2023-05-01T11:55:45.564Z,97.90
2023-05-01T11:58:12.307Z,98.50
2023-05-01T12:00:42.133Z,97.00
2023-05-01T12:03:10.743Z,97.80
2023-05-01T12:05:39.267Z,99.90
2023-05-01T12:08:11.408Z,99.90
2023-05-01T12:10:40.340Z,99.90
2023-05-01T12:13:08.104Z,99.90
2023-05-01T12:15:37.566Z,99.90
2023-05-01T12:18:06.264Z,99.90
2023-05-01T12:20:44.125Z,99.90
2023-05-01T12:23:12.883Z,99.90
2023-05-01T12:25:40.983Z,99.90
2023-05-01T12:28:19.423Z,99.90
2023-05-01T12:30:49.524Z,99.90
2023-05-01T12:33:18.047Z,99.90
2023-05-01T12:35:47.220Z,99.90
2023-05-01T12:38:18.407Z,99.90
2023-05-01T12:40:59.884Z,99.90
2023-05-01T12:43:31.437Z,99.90
2023-05-01T12:45:58.590Z,99.90
2023-05-01T12:48:26.131Z,99.90
2023-05-01T12:50:56.358Z,99.90
2023-05-01T12:53:24.682Z,99.90
2023-05-01T12:55:52.968Z,99.90
2023-05-01T12:58:19.742Z,99.90
2023-05-01T13:00:49.336Z,99.90
2023-05-01T13:03:19.489Z,99.90
2023-05-01T13:06:00.272Z,99.90
2023-05-01T13:08:42.864Z,99.90
2023-05-01T13:11:14.337Z,99.90
2023-05-01T13:13:41.390Z,99.90
2023-05-01T13:16:12.862Z,99.90
2023-05-01T13:19:06.459Z,99.90
2023-05-01T13:21:34.210Z,99.90
2023-05-01T13:24:02.005Z,99.90
2023-05-01T13:26:35.840Z,99.90
2023-05-01T13:29:03.794Z,99.90
2023-05-01T13:31:30.713Z,99.90
2023-05-01T13:34:02.293Z,99.90
2023-05-01T13:36:33.119Z,99.90
2023-05-01T13:39:01.533Z,99.90
2023-05-01T13:41:28.379Z,99.90
2023-05-01T13:43:57.392Z,99.90
2023-05-01T13:46:25.501Z,99.90
2023-05-01T13:48:53.339Z,99.90
2023-05-01T13:51:24.972Z,99.90
2023-05-01T13:53:55.240Z,99.90
2023-05-01T13:56:22.346Z,99.90
2023-05-01T13:58:50.872Z,99.90
2023-05-01T14:01:20.912Z,99.90
2023-05-01T14:03:49.019Z,99.90
2023-05-01T14:06:17.190Z,99.90
2023-05-01T14:08:44.985Z,99.90
2023-05-01T14:11:12.547Z,99.90
2023-05-01T14:13:46.373Z,99.90
2023-05-01T14:16:23.858Z,99.90
2023-05-01T14:18:53.617Z,99.90
2023-05-01T14:21:20.668Z,99.90
2023-05-01T14:23:48.364Z,99.90
2023-05-01T14:26:18.907Z,99.90
2023-05-01T14:28:47.075Z,99.90
2023-05-01T14:31:17.782Z,99.90
2023-05-01T14:33:44.942Z,99.90
2023-05-01T14:36:12.401Z,99.90
2023-05-01T14:38:40.837Z,99.90
2023-05-01T14:41:12.633Z,99.90
2023-05-01T14:44:01.656Z,99.90
2023-05-01T14:46:31.434Z,99.90
2023-05-01T14:48:59.795Z,99.90
2023-05-01T14:51:27.368Z,99.90
2023-05-01T14:53:54.094Z,99.90
2023-05-01T14:56:21.614Z,99.90
2023-05-01T14:58:49.872Z,99.90
2023-05-01T15:01:18.748Z,99.90
2023-05-01T15:03:45.965Z,99.90
2023-05-01T15:06:12.847Z,99.90
2023-05-01T15:08:40.158Z,99.90
2023-05-01T15:11:07.834Z,99.90
2023-05-01T15:13:34.952Z,99.90
2023-05-01T15:16:02.776Z,99.90
2023-05-01T15:18:29.819Z,99.90
2023-05-01T15:20:57.143Z,99.90
2023-05-01T15:23:27.470Z,99.90
2023-05-01T15:25:55.220Z,99.90
2023-05-01T15:28:23.883Z,99.90
2023-05-01T15:30:52.605Z,99.90
2023-05-01T15:33:19.795Z,99.90
2023-05-01T15:35:48.649Z,99.90
2023-05-01T15:38:15.395Z,99.90
2023-05-01T15:40:45.748Z,99.90
2023-05-01T15:43:13.188Z,99.90
2023-05-01T15:45:43.502Z,99.90
2023-05-01T15:48:11.957Z,99.90
2023-05-01T15:50:39.915Z,99.90
2023-05-01T15:53:06.905Z,99.90
2023-05-01T15:55:34.882Z,99.90
2023-05-01T15:58:03.043Z,99.90
2023-05-01T16:00:30.847Z,99.90
2023-05-01T16:02:57.899Z,99.90
2023-05-01T16:05:24.856Z,99.90
2023-05-01T16:07:57.852Z,99.90
2023-05-01T16:10:25.662Z,99.90
2023-05-01T16:12:56.312Z,99.90
2023-05-01T16:15:23.668Z,99.90
2023-05-01T16:17:52.085Z,99.90
2023-05-01T16:20:19.215Z,99.90
2023-05-01T16:22:46.354Z,99.90
2023-05-01T16:25:13.223Z,99.90
2023-05-01T16:27:44.402Z,99.90
2023-05-01T16:30:16.512Z,99.90
2023-05-01T16:32:44.550Z,99.90
2023-05-01T16:35:16.816Z,99.90
2023-05-01T16:37:44.184Z,99.90
2023-05-01T16:40:15.796Z,99.90
2023-05-01T16:42:42.950Z,99.90
2023-05-01T16:45:10.767Z,99.90
2023-05-01T16:47:38.476Z,99.90
2023-05-01T16:50:08.351Z,99.90
2023-05-01T16:52:35.722Z,99.90
2023-05-01T16:55:09.392Z,99.90
2023-05-01T16:57:37.774Z,99.90
2023-05-01T17:00:08.971Z,99.90
2023-05-01T17:02:36.191Z,99.90
2023-05-01T17:05:03.935Z,99.90
2023-05-01T17:07:31.207Z,99.90
2023-05-01T17:09:58.449Z,99.90
2023-05-01T17:12:27.670Z,99.90
2023-05-01T17:14:57.697Z,99.90
2023-05-01T17:17:29.308Z,99.90
2023-05-01T17:19:56.178Z,99.90
2023-05-01T17:22:25.495Z,99.90
2023-05-01T17:24:53.320Z,99.90
2023-05-01T17:27:20.244Z,99.90
2023-05-01T17:29:47.824Z,99.90
2023-05-01T17:32:20.362Z,99.90
2023-05-01T17:34:59.708Z,99.90
2023-05-01T17:37:27.482Z,99.90
2023-05-01T17:39:54.618Z,99.90
2023-05-01T17:42:21.827Z,99.90
2023-05-01T17:44:48.743Z,99.90
2023-05-01T17:47:15.443Z,99.90
2023-05-01T17:49:42.525Z,99.90
2023-05-01T17:52:10.195Z,99.90
2023-05-01T17:54:38.354Z,99.90
2023-05-01T17:57:05.921Z,99.90
2023-05-01T17:59:33.075Z,99.90
2023-05-01T18:02:00.011Z,99.90
2023-05-01T18:04:28.725Z,99.90
2023-05-01T18:06:56.612Z,99.90
2023-05-01T18:09:24.049Z,99.90
2023-05-01T18:11:52.292Z,99.90
2023-05-01T18:14:19.446Z,99.90
2023-05-01T18:16:46.865Z,99.90
2023-05-01T18:19:14.381Z,99.90
2023-05-01T18:21:41.586Z,99.90
2023-05-01T18:24:10.131Z,99.90
2023-05-01T18:26:37.239Z,99.90
2023-05-01T18:29:04.664Z,99.90
2023-05-01T18:31:34.185Z,99.90
2023-05-01T18:34:01.930Z,99.90
2023-05-01T18:36:28.614Z,99.90
2023-05-01T18:38:56.088Z,99.90
2023-05-01T18:41:22.977Z,99.90
2023-05-01T18:43:54.268Z,99.90
2023-05-01T18:46:22.835Z,99.90
2023-05-01T18:48:50.052Z,99.90
2023-05-01T18:51:17.326Z,99.90
2023-05-01T18:53:44.525Z,99.90
2023-05-01T18:56:11.804Z,99.90
2023-05-01T18:58:40.008Z,99.90
2023-05-01T19:01:07.942Z,99.90
2023-05-01T19:03:34.987Z,99.90
2023-05-01T19:06:02.710Z,99.90
2023-05-01T19:08:31.503Z,99.90
2023-05-01T19:10:58.890Z,99.90
2023-05-01T19:13:26.268Z,99.90
2023-05-01T19:15:53.540Z,99.90
2023-05-01T19:18:20.629Z,99.90
2023-05-01T19:20:47.705Z,99.90
2023-05-01T19:23:14.759Z,99.90
2023-05-01T19:25:41.989Z,99.90
2023-05-01T19:28:09.515Z,99.90
2023-05-01T19:30:37.353Z,99.90
2023-05-01T19:33:05.601Z,99.90
2023-05-01T19:35:32.666Z,99.90
2023-05-01T19:37:59.473Z,99.90
2023-05-01T19:40:26.304Z,99.90
2023-05-01T19:42:53.487Z,99.90
2023-05-01T19:45:20.286Z,99.90
2023-05-01T19:47:47.571Z,99.90
2023-05-01T19:50:20.996Z,99.90
2023-05-01T19:52:48.246Z,99.90
2023-05-01T19:55:16.955Z,99.90
2023-05-01T19:57:44.557Z,99.90
2023-05-01T20:00:14.803Z,99.90
2023-05-01T20:02:41.943Z,99.90
2023-05-01T20:05:09.860Z,99.90
2023-05-01T20:07:37.057Z,99.90
2023-05-01T20:10:05.152Z,99.90
2023-05-01T20:12:33.306Z,99.90
2023-05-01T20:15:01.525Z,99.90
2023-05-01T20:17:28.603Z,99.90
2023-05-01T20:19:56.467Z,99.90
2023-05-01T20:22:24.488Z,99.90
2023-05-01T20:24:52.578Z,99.90
2023-05-01T20:27:19.514Z,99.90
2023-05-01T20:29:46.264Z,99.90
2023-05-01T20:32:13.380Z,99.90
2023-05-01T20:34:40.420Z,99.90
2023-05-01T20:37:07.879Z,99.90
2023-05-01T20:39:35.524Z,99.90
2023-05-01T20:42:02.732Z,99.90
2023-05-01T20:44:29.426Z,99.90
2023-05-01T20:46:56.264Z,99.90
2023-05-01T20:49:23.421Z,99.90
2023-05-01T20:51:52.587Z,99.90
2023-05-01T20:54:19.969Z,99.90
2023-05-01T20:56:48.245Z,99.90
2023-05-01T20:59:15.473Z,99.90
2023-05-01T21:01:42.320Z,99.90
2023-05-01T21:04:10.280Z,99.90
2023-05-01T21:06:37.633Z,99.90
2023-05-01T21:09:06.153Z,99.90
2023-05-01T21:11:33.674Z,99.90
2023-05-01T21:14:01.086Z,99.90
2023-05-01T21:16:28.907Z,99.90
2023-05-01T21:18:56.061Z,99.90
2023-05-01T21:21:25.219Z,99.90
2023-05-01T21:23:52.558Z,99.90
2023-05-01T21:26:19.643Z,99.90
2023-05-01T21:28:47.114Z,99.90
2023-05-01T21:31:14.735Z,99.90
2023-05-01T21:33:45.370Z,99.90
2023-05-01T21:36:12.455Z,99.90
2023-05-01T21:38:39.513Z,99.90
2023-05-01T21:41:06.564Z,99.90
2023-05-01T21:43:33.858Z,99.90
2023-05-01T21:46:01.231Z,99.90
2023-05-01T21:48:28.508Z,99.90
2023-05-01T21:50:56.750Z,99.90
2023-05-01T21:53:23.808Z,99.90
2023-05-01T21:55:51.991Z,99.90
2023-05-01T21:58:19.239Z,99.90
2023-05-01T22:00:46.232Z,99.90
2023-05-01T22:03:17.102Z,99.90
2023-05-01T22:05:44.417Z,99.90
2023-05-01T22:08:12.454Z,99.90
2023-05-01T22:10:41.000Z,99.90
2023-05-01T22:13:08.485Z,99.90
2023-05-01T22:15:35.529Z,99.90
2023-05-01T22:18:03.293Z,99.90
2023-05-01T22:20:31.170Z,99.90
2023-05-01T22:22:58.429Z,99.90
2023-05-01T22:25:25.495Z,99.90
2023-05-01T22:27:52.900Z,99.90
2023-05-01T22:30:20.272Z,99.90
2023-05-01T22:32:47.174Z,99.90
2023-05-01T22:35:14.176Z,99.90
2023-05-01T22:37:41.205Z,99.90
2023-05-01T22:40:09.592Z,99.90
2023-05-01T22:42:36.861Z,99.90
2023-05-01T22:45:04.848Z,99.90
2023-05-01T22:47:32.108Z,99.90
2023-05-01T22:49:59.030Z,99.90
2023-05-01T22:52:27.301Z,99.90
2023-05-01T22:54:54.336Z,99.90
2023-05-01T22:57:21.751Z,99.90
2023-05-01T22:59:49.702Z,99.90
2023-05-01T23:02:17.590Z,99.90
2023-05-01T23:04:44.522Z,99.90
2023-05-01T23:07:13.646Z,99.90
2023-05-01T23:09:41.362Z,99.90
2023-05-01T23:12:08.254Z,99.90
2023-05-01T23:14:36.720Z,99.90
2023-05-01T23:17:03.952Z,99.90
2023-05-01T23:19:31.265Z,99.90
2023-05-01T23:22:08.566Z,99.90
2023-05-01T23:24:49.834Z,99.90
2023-05-01T23:27:18.577Z,99.90
2023-05-01T23:29:59.403Z,99.90
2023-05-01T23:32:30.956Z,99.90
2023-05-01T23:35:03.598Z,99.90
2023-05-01T23:37:30.346Z,99.90
2023-05-01T23:40:00.145Z,99.90
2023-05-01T23:42:28.170Z,99.90
2023-05-01T23:44:56.341Z,99.90
2023-05-01T23:47:23.702Z,99.90
2023-05-01T23:49:51.233Z,99.90
2023-05-01T23:52:18.258Z,99.90
2023-05-01T23:54:45.193Z,99.90
2023-05-01T23:57:12.556Z,99.90
2023-05-01T23:59:39.601Z,99.90
